Flight Track Log - Related Links

Times and Time Zones

All times are in EDT time to prevent confusion due to time zone crossing. See the KAP927 flight status page for this flight to view local times or setup timezone preferences in your user account.

Time Position Orientation Groundspeed Altitude Reporting Facility
EDT Latitude Longitude Course Direction KTS MPH feet Rate Location/Type
Thu 05:07:44 PM 44.4886 -75.2892 143° Southeast 155 178 4,600  Level Boston Center
Thu 05:08:44 PM 44.4500 -75.2522 146° Southeast 144 166 5,300 800 Climbing Boston Center
Thu 05:09:44 PM 44.4192 -75.2275 150° Southeast 139 160 6,200 800 Climbing Boston Center
Thu 05:10:44 PM 44.3886 -75.2000 147° Southeast 134 154 6,900 450 Climbing Boston Center
Thu 05:11:44 PM 44.3519 -75.1722 152° Southeast 140 161 7,100 100 Climbing Boston Center
Thu 05:12:00 PM 44.4902 -75.2947 149° Southeast  Level Estimated
Thu 05:12:44 PM 44.3153 -75.1356 144° Southeast 145 167 7,100  Level Boston Center
Thu 05:13:00 PM 44.4584 -75.2613 143° Southeast  Level FlightAware Approximate
Thu 05:13:44 PM 44.2783 -75.1050 149° Southeast 152 175 7,100  Level Boston Center
Thu 05:14:44 PM 44.2417 -75.0714 147° Southeast 157 181 7,100  Level Boston Center
Thu 05:15:44 PM 44.2028 -75.0378 148° Southeast 157 181 7,100  Level Boston Center
Thu 05:16:44 PM 44.1661 -75.0072 149° Southeast 157 181 7,100 -50 Level Boston Center
Thu 05:17:44 PM 44.1292 -74.9739 147° Southeast 157 181 7,000  Descending Boston Center
Thu 05:18:44 PM 44.0925 -74.9433 149° Southeast 157 181 7,100 50 Climbing Boston Center
Thu 05:19:44 PM 44.0556 -74.9100 147° Southeast 157 181 7,100  Level Boston Center
Thu 05:20:44 PM 44.0189 -74.8769 147° Southeast 157 181 7,100 -50 Level Boston Center
Thu 05:21:44 PM 43.9778 -74.8433 150° Southeast 157 181 7,000  Descending Boston Center
Thu 05:22:44 PM 43.9411 -74.8103 147° Southeast 157 181 7,100  Climbing Boston Center
Thu 05:23:44 PM 43.9042 -74.7800 149° Southeast 157 181 7,000  Descending Boston Center
Thu 05:24:44 PM 43.8672 -74.7497 149° Southeast 157 181 7,100  Climbing Boston Center
Thu 05:25:44 PM 43.8261 -74.7136 148° Southeast 168 193 7,000  Descending Boston Center
Thu 05:26:44 PM 43.7914 -74.6806 145° Southeast 168 193 7,100 50 Climbing Boston Center
Thu 05:27:44 PM 43.7544 -74.6506 150° Southeast 163 188 7,100  Level Boston Center
Thu 05:28:44 PM 43.7175 -74.6175 147° Southeast 163 188 7,100 -50 Level Boston Center
Thu 05:29:44 PM 43.6767 -74.5844 150° Southeast 163 188 7,000 -50 Descending Boston Center
Thu 05:30:44 PM 43.6336 -74.5486 149° Southeast 163 188 7,000  Level Boston Center
Thu 05:31:44 PM 43.5967 -74.5158 147° Southeast 163 188 7,000 50 Level Boston Center
Thu 05:32:44 PM 43.5575 -74.4828 149° Southeast 163 188 7,100  Climbing Boston Center
Thu 05:33:44 PM 43.5186 -74.4500 149° Southeast 163 188 7,000  Descending Boston Center
Thu 05:34:44 PM 43.4817 -74.4203 150° Southeast 163 188 7,100 -75 Climbing Boston Center
Thu 05:35:04 PM 43.4692 -74.4111 152° Southeast 156 180 6,900 -133 Descending Boston Center
Thu 05:35:29 PM 43.4528 -74.3964 147° Southeast 153 176 7,000 300 Climbing Boston Center
Thu 05:35:44 PM 43.4447 -74.3875 141° Southeast 163 188 7,100 -100 Climbing Boston Center
Thu 05:36:29 PM 43.4136 -74.3636 151° Southeast 167 192 6,900 -100 Descending Boston Center
Thu 05:36:44 PM 43.4033 -74.3547 148° Southeast 163 188 7,000 109 Climbing Boston Center
Thu 05:37:24 PM 43.3767 -74.3339 150° Southeast 171 197 7,000  Level Boston Center
Thu 05:37:44 PM 43.3686 -74.3194 127° Southeast 163 188 7,000 -98 Level Boston Center
Thu 05:38:25 PM 43.3356 -74.2956 152° Southeast 172 198 6,900 -100 Descending Boston Center
Thu 05:38:44 PM 43.3233 -74.2839 145° Southeast 168 193 6,900 111 Level Boston Center
Thu 05:39:19 PM 43.3008 -74.2658 150° Southeast 174 200 7,000 200 Climbing Boston Center
Thu 05:39:44 PM 43.2883 -74.2514 140° Southeast 168 193 7,100 -295 Climbing Boston Center
Thu 05:40:20 PM 43.2575 -74.2275 151° Southeast 175 201 6,700 -600 Descending Boston Center
Thu 05:40:44 PM 43.2411 -74.2128 147° Southeast 175 201 6,500 -492 Descending Boston Center
Thu 05:41:21 PM 43.2144 -74.1922 151° Southeast 183 211 6,200 -400 Descending Boston Center
Thu 05:41:44 PM 43.2019 -74.1803 145° Southeast 175 201 6,100 -400 Descending Boston Center
Thu 05:42:21 PM 43.1711 -74.1594 154° Southeast 169 194 5,800 -500 Descending Boston Center
Thu 05:42:44 PM 43.1567 -74.1450 144° Southeast 175 201 5,600 -393 Descending Boston Center
Thu 05:43:22 PM 43.1300 -74.1242 150° Southeast 173 199 5,400 -400 Descending Boston Center
Thu 05:43:44 PM 43.1197 -74.1125 140° Southeast 180 207 5,200 -393 Descending Boston Center
Thu 05:44:23 PM 43.0908 -74.0919 153° Southeast 177 204 5,000 -400 Descending Boston Center
Thu 05:44:44 PM 43.0744 -74.0744 142° Southeast 180 207 4,800 -400 Descending Boston Center
Thu 05:45:23 PM 43.0475 -74.0567 154° Southeast 180 207 4,600 -400 Descending Boston Center
Thu 05:45:44 PM 43.0353 -74.0450 145° Southeast 180 207 4,400 -492 Descending Boston Center
Thu 05:46:24 PM 43.0000 -74.0186 151° Southeast 177 204 4,100 -400 Descending Boston Center
Thu 05:46:44 PM 42.9878 -74.0039 139° Southeast 180 207 4,000 -98 Descending Boston Center
Thu 05:47:25 PM 42.9611 -73.9833 151° Southeast 175 201 4,000  Level Boston Center
Thu 05:47:44 PM 42.9569 -73.9778 136° Southeast 180 207 4,000 -100 Level Boston Center
Thu 05:48:25 PM 42.9219 -73.9486 149° Southeast 164 189 3,900 -100 Descending Boston Center
Thu 05:48:44 PM 42.9117 -73.9369 140° Southeast 170 196 3,900 98 Level Boston Center
Thu 05:49:26 PM 42.8803 -73.9333 175° South 158 182 4,000 100 Climbing Boston Center
Thu 05:49:44 PM 42.8719 -73.9331 179° South 158 182 4,000 -269 Level Boston Center
Thu 05:50:33 PM 42.8325 -73.9294 176° South 164 189 3,700 -522 Descending Boston Center
Thu 05:51:39 PM 42.7764 -73.9139 168° South 175 201 3,000 -661 Descending Boston Center
Thu 05:52:40 PM 42.7414 -73.8792 144° Southeast 161 185 2,300 -836 Descending Boston Center
Thu 05:53:41 PM 42.7169 -73.8275 123° Southeast 144 166 1,300 -991 Descending Boston Center
Thu 05:54:35 PM 42.7339 -73.8081 40° Northeast 102 117 400 -1,000 Descending Boston Center

Login

Don't have an account? Register now (free) for customized features, flight alerts, and more!